Time;durP1;ratioP1;P1;durP2;ratioP2;P2;SDS_P1;SDS_P2;PMS_P1;PMS_P2;Temp;Humidity;BMP_temperature;BMP_pressure;BME280_temperature;BME280_humidity;BME280_pressure;Samples;Min_cycle;Max_cycle;Signal;HPM_P1;HPM_P2
2021/09/23 00:00:52;;;;;;;10.02;4.88;;;11.50;78.80;;;;;;5076308;28;20052;-73
2021/09/23 00:05:53;;;;;;;8.88;4.50;;;11.50;78.80;;;;;;5076117;28;20366;-73
2021/09/23 00:08:19;;;;;;;6.97;4.50;;;11.50;79.00;;;;;;5075864;28;20044;-73
2021/09/23 00:10:45;;;;;;;6.80;5.38;;;11.40;78.90;;;;;;5076170;28;20086;-73
2021/09/23 00:13:10;;;;;;;7.18;4.40;;;11.40;79.00;;;;;;5076067;28;20098;-73
2021/09/23 00:15:37;;;;;;;7.40;4.95;;;11.40;79.00;;;;;;5076071;28;20051;-74
2021/09/23 00:18:08;;;;;;;6.97;4.97;;;11.50;79.00;;;;;;5076090;28;20020;-73
2021/09/23 00:20:37;;;;;;;7.05;4.97;;;11.50;79.10;;;;;;5076039;28;20060;-73
2021/09/23 00:23:03;;;;;;;7.28;5.03;;;11.40;79.00;;;;;;5075588;28;20103;-73
2021/09/23 00:25:29;;;;;;;10.32;5.22;;;11.30;79.40;;;;;;5075861;28;20066;-73
2021/09/23 00:27:56;;;;;;;9.48;5.75;;;11.20;79.80;;;;;;5075892;28;20052;-73
2021/09/23 00:30:22;;;;;;;10.73;5.25;;;11.20;80.00;;;;;;5075648;28;20500;-73
2021/09/23 00:32:49;;;;;;;6.53;5.18;;;11.20;80.00;;;;;;5075832;28;20029;-73
2021/09/23 00:35:16;;;;;;;8.25;5.10;;;11.30;80.10;;;;;;5075545;28;20036;-72
2021/09/23 00:37:42;;;;;;;9.63;5.45;;;11.20;79.90;;;;;;5075916;28;20025;-74
2021/09/23 00:40:08;;;;;;;10.23;6.20;;;11.30;79.90;;;;;;5075577;28;20024;-72
2021/09/23 00:42:36;;;;;;;8.48;5.63;;;11.30;79.60;;;;;;5075349;28;20020;-73
2021/09/23 00:45:04;;;;;;;9.52;5.22;;;11.40;79.30;;;;;;5075457;28;20040;-72
2021/09/23 00:47:29;;;;;;;10.80;5.90;;;11.30;79.20;;;;;;5075349;28;20024;-72
2021/09/23 00:49:55;;;;;;;7.25;4.88;;;11.40;79.20;;;;;;5075362;28;20481;-72
2021/09/23 00:52:24;;;;;;;9.93;5.22;;;11.40;79.00;;;;;;5075336;28;20495;-72
2021/09/23 00:54:50;;;;;;;11.35;6.13;;;11.40;79.10;;;;;;5075506;28;20154;-72
2021/09/23 00:57:21;;;;;;;12.68;6.32;;;11.30;79.30;;;;;;5075207;28;20027;-72
2021/09/23 00:59:48;;;;;;;9.07;5.20;;;11.40;79.30;;;;;;5056529;28;20384;-72
2021/09/23 01:02:15;;;;;;;15.27;6.20;;;11.40;79.00;;;;;;5075218;28;20074;-73
2021/09/23 01:04:44;;;;;;;10.00;7.07;;;11.40;78.80;;;;;;5075011;28;20037;-72
2021/09/23 01:07:15;;;;;;;9.82;5.70;;;11.40;79.00;;;;;;5075199;28;20032;-72
2021/09/23 01:09:52;;;;;;;8.95;6.00;;;11.30;78.90;;;;;;5074991;28;20373;-71
2021/09/23 01:12:20;;;;;;;12.23;6.55;;;11.20;79.20;;;;;;5074973;28;20024;-72
2021/09/23 01:14:46;;;;;;;10.90;6.28;;;11.20;79.40;;;;;;5074891;28;20035;-71
2021/09/23 01:17:12;;;;;;;13.10;6.70;;;11.00;79.40;;;;;;5074692;28;20052;-72
2021/09/23 01:19:39;;;;;;;13.35;6.18;;;11.00;79.70;;;;;;5074629;28;20055;-72
2021/09/23 01:22:05;;;;;;;14.98;6.25;;;10.90;80.20;;;;;;5074896;28;20029;-74
2021/09/23 01:24:31;;;;;;;10.35;6.40;;;10.70;80.50;;;;;;5074603;28;20545;-73
2021/09/23 01:26:56;;;;;;;10.95;6.43;;;10.50;81.40;;;;;;5074778;28;20176;-73
2021/09/23 01:29:23;;;;;;;11.55;7.60;;;10.50;82.20;;;;;;5074868;28;20561;-73
2021/09/23 01:31:49;;;;;;;9.90;6.72;;;10.40;82.60;;;;;;5074719;28;20115;-73
2021/09/23 01:34:14;;;;;;;12.40;6.38;;;10.40;83.00;;;;;;5074536;28;20068;-73
2021/09/23 01:36:40;;;;;;;9.70;5.70;;;10.50;83.20;;;;;;5074670;28;20052;-73
2021/09/23 01:39:06;;;;;;;9.07;4.82;;;10.50;82.80;;;;;;5056690;28;20028;-73
2021/09/23 01:41:32;;;;;;;8.65;5.47;;;10.50;81.50;;;;;;5056499;28;20055;-73
2021/09/23 01:43:58;;;;;;;10.80;5.88;;;10.50;80.10;;;;;;5074388;28;20496;-73
2021/09/23 01:46:23;;;;;;;8.82;5.45;;;10.40;79.70;;;;;;5074357;28;20025;-73
2021/09/23 01:48:49;;;;;;;5.25;4.45;;;10.30;80.10;;;;;;5074460;28;20464;-73
2021/09/23 01:51:14;;;;;;;7.80;4.85;;;10.30;80.40;;;;;;5074260;28;20550;-73
2021/09/23 01:53:40;;;;;;;5.85;4.28;;;10.30;80.30;;;;;;5074886;28;20469;-73
2021/09/23 01:56:06;;;;;;;7.05;4.32;;;10.30;80.20;;;;;;5057033;28;20024;-72
2021/09/23 01:58:31;;;;;;;8.35;5.13;;;10.40;80.20;;;;;;5074108;28;20016;-73
2021/09/23 02:00:57;;;;;;;7.25;4.43;;;10.30;80.20;;;;;;5074026;28;20397;-72
2021/09/23 02:03:23;;;;;;;6.30;4.63;;;10.30;80.40;;;;;;5073924;28;20576;-73
2021/09/23 02:05:48;;;;;;;8.13;4.68;;;10.30;80.40;;;;;;5073958;28;20021;-72
2021/09/23 02:08:14;;;;;;;7.45;4.47;;;10.30;80.40;;;;;;5073886;28;20442;-73
2021/09/23 02:10:39;;;;;;;9.30;5.47;;;10.30;80.40;;;;;;5073734;28;20020;-73
2021/09/23 02:13:05;;;;;;;9.85;5.97;;;10.30;80.90;;;;;;5073848;28;20056;-73
2021/09/23 02:15:31;;;;;;;8.50;5.85;;;10.20;81.60;;;;;;5073731;28;20047;-73
2021/09/23 02:17:56;;;;;;;9.18;6.32;;;10.10;82.50;;;;;;5073767;28;20481;-73
2021/09/23 02:20:22;;;;;;;8.20;5.00;;;10.10;82.60;;;;;;5073712;28;20477;-73
2021/09/23 02:22:47;;;;;;;5.38;3.92;;;10.10;82.40;;;;;;5073709;28;20027;-73
2021/09/23 02:25:13;;;;;;;7.20;4.40;;;10.10;81.70;;;;;;5073511;28;20116;-73
2021/09/23 02:27:39;;;;;;;6.30;4.38;;;10.20;81.10;;;;;;5073736;28;20028;-73
2021/09/23 02:30:05;;;;;;;4.50;3.78;;;10.10;80.80;;;;;;5073354;28;20337;-73
2021/09/23 02:32:31;;;;;;;7.07;4.32;;;10.10;80.50;;;;;;5073510;28;20373;-73
2021/09/23 02:34:57;;;;;;;9.15;5.60;;;10.10;80.30;;;;;;5073404;28;20017;-73
2021/09/23 02:37:24;;;;;;;10.18;5.30;;;10.00;80.80;;;;;;5073342;28;20024;-74
2021/09/23 02:39:49;;;;;;;9.70;5.82;;;10.00;81.70;;;;;;5073500;28;20025;-73
2021/09/23 02:42:15;;;;;;;8.07;5.32;;;10.00;81.70;;;;;;5073343;28;20469;-73
2021/09/23 02:44:41;;;;;;;8.93;5.72;;;10.00;81.80;;;;;;5073282;28;20037;-73
2021/09/23 02:47:07;;;;;;;7.68;4.60;;;9.90;81.80;;;;;;5073426;28;20032;-73
2021/09/23 02:49:32;;;;;;;10.52;5.72;;;9.90;81.40;;;;;;5073274;28;20032;-73
2021/09/23 02:51:58;;;;;;;9.70;6.28;;;9.80;81.40;;;;;;5073343;28;20048;-73
2021/09/23 02:54:24;;;;;;;9.48;5.40;;;9.60;81.90;;;;;;5073166;28;20025;-73
2021/09/23 02:56:50;;;;;;;8.18;5.40;;;9.60;82.10;;;;;;5073250;28;20028;-73
2021/09/23 02:59:16;;;;;;;7.13;4.95;;;9.70;82.30;;;;;;5073184;28;20511;-73
2021/09/23 03:01:41;;;;;;;8.73;4.88;;;9.70;81.90;;;;;;5073063;28;20049;-73
2021/09/23 03:04:07;;;;;;;8.23;4.95;;;9.70;81.70;;;;;;5073111;28;20083;-73
2021/09/23 03:06:32;;;;;;;6.97;4.30;;;9.70;81.80;;;;;;5072951;28;20024;-73
2021/09/23 03:08:59;;;;;;;7.00;4.28;;;9.70;81.80;;;;;;5073184;28;20038;-73
2021/09/23 03:11:25;;;;;;;10.40;4.78;;;9.70;81.50;;;;;;5073010;28;20027;-73
2021/09/23 03:13:51;;;;;;;8.68;5.60;;;9.60;81.40;;;;;;5072973;28;20635;-73
2021/09/23 03:16:17;;;;;;;11.27;5.70;;;9.60;81.40;;;;;;5072894;28;20031;-73
2021/09/23 03:18:45;;;;;;;6.63;4.47;;;9.60;81.20;;;;;;5073185;28;20025;-73
2021/09/23 03:21:10;;;;;;;7.70;3.97;;;9.60;80.90;;;;;;5073217;28;20449;-73
2021/09/23 03:23:36;;;;;;;7.93;4.95;;;9.50;81.00;;;;;;5079107;28;20063;-73
2021/09/23 03:26:04;;;;;;;8.80;4.15;;;9.50;81.50;;;;;;5079589;28;20063;-75
2021/09/23 03:28:30;;;;;;;7.13;5.30;;;9.50;81.70;;;;;;5079785;28;20028;-73
2021/09/23 03:30:57;;;;;;;10.15;6.75;;;9.50;82.10;;;;;;5079504;28;20384;-73
2021/09/23 03:33:22;;;;;;;14.85;7.95;;;9.60;83.00;;;;;;5079397;28;20469;-73
2021/09/23 03:35:48;;;;;;;14.48;9.05;;;9.60;84.00;;;;;;5079466;28;20037;-73
2021/09/23 03:38:14;;;;;;;19.92;9.38;;;9.70;85.00;;;;;;5079357;28;20036;-73
2021/09/23 03:40:39;;;;;;;15.98;9.40;;;9.70;85.00;;;;;;5079507;28;20020;-73
2021/09/23 03:43:05;;;;;;;18.75;11.85;;;9.80;84.90;;;;;;5079328;28;20028;-73
2021/09/23 03:45:31;;;;;;;21.30;12.45;;;9.80;84.70;;;;;;5079219;28;20028;-73
2021/09/23 03:47:57;;;;;;;20.80;13.05;;;9.80;84.90;;;;;;5061164;28;20439;-73
2021/09/23 03:50:22;;;;;;;19.83;12.05;;;9.80;84.80;;;;;;5079220;28;20109;-73
2021/09/23 03:52:48;;;;;;;19.80;11.63;;;9.90;84.60;;;;;;5079110;28;20031;-73
2021/09/23 03:55:15;;;;;;;17.58;10.95;;;9.90;84.40;;;;;;5079153;28;20020;-73
2021/09/23 03:57:42;;;;;;;17.20;9.60;;;9.90;84.40;;;;;;5078861;28;20075;-73
2021/09/23 04:00:08;;;;;;;16.27;10.23;;;9.90;84.50;;;;;;5061206;28;20048;-73
2021/09/23 04:02:34;;;;;;;16.00;9.82;;;9.90;84.50;;;;;;5078972;28;20481;-73
2021/09/23 04:04:59;;;;;;;19.80;9.70;;;9.90;84.50;;;;;;5079015;28;20082;-73
2021/09/23 04:07:25;;;;;;;21.30;10.13;;;9.90;84.80;;;;;;5079087;28;20016;-74
2021/09/23 04:09:50;;;;;;;17.05;10.25;;;9.90;84.90;;;;;;5079147;28;20025;-73
2021/09/23 04:12:16;;;;;;;19.45;10.57;;;9.90;84.70;;;;;;5079140;28;20021;-73
2021/09/23 04:14:41;;;;;;;13.38;9.30;;;9.90;84.50;;;;;;5079103;28;20587;-74
2021/09/23 04:17:07;;;;;;;16.77;9.38;;;10.00;84.30;;;;;;5079064;28;20048;-73
2021/09/23 04:19:33;;;;;;;20.00;10.43;;;10.10;84.10;;;;;;5078967;28;20473;-73
2021/09/23 04:21:58;;;;;;;16.05;10.30;;;10.10;84.00;;;;;;5078731;28;20020;-73
2021/09/23 04:24:24;;;;;;;16.50;9.35;;;10.10;83.70;;;;;;5078727;28;20471;-73
2021/09/23 04:26:50;;;;;;;17.33;9.68;;;10.20;83.50;;;;;;5078922;28;20525;-75
2021/09/23 04:29:16;;;;;;;15.98;8.88;;;10.20;83.10;;;;;;5078824;28;20017;-73
2021/09/23 04:31:41;;;;;;;17.33;9.90;;;10.20;83.20;;;;;;5078733;28;20032;-73
2021/09/23 04:34:07;;;;;;;14.05;8.48;;;10.20;83.10;;;;;;5076708;28;20028;-73
2021/09/23 04:36:32;;;;;;;16.80;9.30;;;10.20;83.00;;;;;;5075584;28;20035;-73
2021/09/23 04:38:58;;;;;;;12.63;8.70;;;10.20;82.90;;;;;;5075618;28;20021;-73
2021/09/23 04:41:23;;;;;;;13.95;8.93;;;10.20;82.80;;;;;;5076171;28;20024;-73
2021/09/23 04:43:49;;;;;;;19.88;9.10;;;10.20;82.70;;;;;;5079894;28;20123;-73
2021/09/23 04:46:21;;;;;;;16.75;8.52;;;10.20;82.70;;;;;;5075909;28;20024;-73
2021/09/23 04:48:48;;;;;;;12.38;8.18;;;10.10;82.80;;;;;;5075683;28;20420;-73
2021/09/23 04:51:14;;;;;;;12.50;7.15;;;10.20;82.80;;;;;;5075420;28;20476;-73
2021/09/23 04:53:39;;;;;;;14.52;7.85;;;10.20;82.80;;;;;;5075376;28;20077;-73
2021/09/23 04:56:05;;;;;;;14.73;8.50;;;10.20;82.70;;;;;;5075510;28;20078;-73
2021/09/23 04:58:30;;;;;;;13.75;8.85;;;10.20;82.60;;;;;;5075180;28;20028;-73
2021/09/23 05:00:56;;;;;;;17.00;8.70;;;10.20;82.50;;;;;;5075073;28;20044;-73
2021/09/23 05:03:21;;;;;;;14.25;7.97;;;10.30;82.40;;;;;;5075183;28;20060;-73
2021/09/23 05:05:47;;;;;;;14.30;8.05;;;10.30;82.50;;;;;;5075067;28;20502;-73
2021/09/23 05:08:13;;;;;;;14.00;8.68;;;10.30;82.30;;;;;;5074871;28;20029;-73
2021/09/23 05:10:38;;;;;;;14.63;8.52;;;10.30;81.80;;;;;;5075032;28;20477;-73
2021/09/23 05:13:04;;;;;;;12.32;7.72;;;10.30;81.80;;;;;;5074683;28;20017;-73
2021/09/23 05:15:30;;;;;;;21.88;9.07;;;10.30;81.10;;;;;;5074838;28;20036;-75
2021/09/23 05:17:55;;;;;;;15.25;8.05;;;10.00;80.50;;;;;;5074344;28;20479;-73
2021/09/23 05:20:21;;;;;;;11.60;7.15;;;9.70;81.00;;;;;;5074396;28;20032;-72
2021/09/23 05:22:47;;;;;;;14.05;7.40;;;9.60;81.10;;;;;;5074145;28;20017;-72
2021/09/23 05:25:13;;;;;;;10.75;7.07;;;9.50;81.20;;;;;;5074159;28;20527;-73
2021/09/23 05:27:39;;;;;;;11.95;7.32;;;9.40;81.50;;;;;;5074230;28;20024;-72
2021/09/23 05:30:10;;;;;;;15.35;7.72;;;9.40;82.00;;;;;;5073967;28;20029;-73
2021/09/23 05:32:35;;;;;;;12.32;6.43;;;9.20;82.00;;;;;;5073821;28;20460;-73
2021/09/23 05:35:02;;;;;;;11.50;6.93;;;9.20;82.20;;;;;;5073650;28;20028;-73
2021/09/23 05:37:27;;;;;;;9.52;6.10;;;9.30;82.60;;;;;;5073989;28;20028;-72
2021/09/23 05:39:53;;;;;;;10.68;5.93;;;9.30;82.60;;;;;;5074306;28;20381;-72
2021/09/23 05:42:18;;;;;;;15.27;7.63;;;9.40;82.40;;;;;;5074008;28;20028;-72
2021/09/23 05:44:44;;;;;;;16.88;7.85;;;9.50;82.00;;;;;;5073522;28;20043;-73
2021/09/23 05:47:10;;;;;;;11.30;7.53;;;9.50;81.60;;;;;;5074314;28;20021;-73
2021/09/23 05:49:35;;;;;;;12.90;7.35;;;9.50;81.40;;;;;;5074129;28;20503;-73
2021/09/23 05:52:01;;;;;;;11.48;6.38;;;9.60;80.90;;;;;;5074188;28;20029;-73
2021/09/23 05:54:27;;;;;;;12.20;7.13;;;9.70;80.70;;;;;;5073712;28;20033;-73
2021/09/23 05:56:53;;;;;;;12.55;7.28;;;9.70;80.50;;;;;;5074574;28;20012;-74
2021/09/23 05:59:19;;;;;;;9.88;6.65;;;9.80;80.40;;;;;;5073836;28;20027;-74
2021/09/23 06:01:45;;;;;;;14.25;7.60;;;9.90;79.90;;;;;;5073301;28;20053;-74
2021/09/23 06:04:11;;;;;;;11.48;6.60;;;9.70;77.70;;;;;;5055589;28;20133;-73
2021/09/23 06:06:37;;;;;;;8.20;5.57;;;9.60;78.90;;;;;;5073725;28;20021;-73
2021/09/23 06:09:03;;;;;;;11.88;6.63;;;9.70;79.20;;;;;;5073492;28;20035;-73
2021/09/23 06:11:29;;;;;;;10.32;6.75;;;9.80;79.10;;;;;;5073231;28;20048;-74
2021/09/23 06:13:55;;;;;;;10.75;6.57;;;9.80;79.00;;;;;;5073513;28;20076;-74
2021/09/23 06:16:20;;;;;;;8.70;5.53;;;9.90;78.90;;;;;;5073851;28;20097;-74
2021/09/23 06:18:46;;;;;;;13.63;7.38;;;10.00;78.50;;;;;;5073922;28;20035;-74
2021/09/23 06:21:12;;;;;;;13.05;7.25;;;10.00;78.40;;;;;;5043617;28;20068;-74
2021/09/23 06:23:38;;;;;;;11.32;7.15;;;9.90;78.60;;;;;;5050085;28;20036;-74
2021/09/23 06:26:04;;;;;;;11.65;7.57;;;10.00;78.60;;;;;;5053721;28;20025;-73
2021/09/23 06:28:31;;;;;;;16.27;7.93;;;10.10;78.60;;;;;;5053685;28;20021;-74
2021/09/23 06:30:58;;;;;;;11.75;7.22;;;10.20;78.30;;;;;;5053405;28;20025;-73
2021/09/23 06:33:24;;;;;;;14.63;8.38;;;10.40;78.20;;;;;;5053166;28;20052;-74
2021/09/23 06:35:50;;;;;;;16.17;7.95;;;10.40;78.00;;;;;;5053793;28;20052;-74
2021/09/23 06:38:15;;;;;;;15.93;8.18;;;10.30;78.00;;;;;;5054448;28;20062;-74
2021/09/23 06:40:41;;;;;;;11.07;7.25;;;10.10;78.30;;;;;;5054781;28;20014;-73
2021/09/23 06:43:06;;;;;;;11.02;6.05;;;9.80;79.80;;;;;;5055474;28;20411;-74
2021/09/23 06:45:32;;;;;;;13.27;7.10;;;9.90;79.90;;;;;;5055200;28;20037;-75
2021/09/23 06:47:58;;;;;;;13.85;7.07;;;10.10;79.90;;;;;;5056937;28;20029;-75
2021/09/23 06:50:24;;;;;;;20.95;9.35;;;10.20;79.50;;;;;;5058138;28;20055;-75
2021/09/23 06:52:49;;;;;;;23.52;13.05;;;10.20;80.70;;;;;;5057472;28;20469;-74
2021/09/23 06:55:15;;;;;;;30.73;15.65;;;10.10;82.10;;;;;;5056677;28;20024;-75
2021/09/23 06:57:40;;;;;;;26.80;16.15;;;10.20;82.20;;;;;;5058908;28;20065;-73
2021/09/23 07:00:07;;;;;;;36.47;18.33;;;10.40;82.00;;;;;;5057770;28;20060;-74
2021/09/23 07:02:33;;;;;;;32.00;16.75;;;10.60;81.50;;;;;;5056153;28;20021;-74
2021/09/23 07:04:58;;;;;;;36.38;20.17;;;10.80;80.80;;;;;;5054361;28;20033;-73
2021/09/23 07:07:24;;;;;;;38.95;19.83;;;11.00;79.70;;;;;;5052800;28;20351;-73
2021/09/23 07:09:49;;;;;;;23.42;14.98;;;11.20;79.60;;;;;;5052739;28;20033;-74
2021/09/23 07:12:15;;;;;;;22.50;13.23;;;11.30;79.10;;;;;;5051275;28;20017;-73
2021/09/23 07:14:41;;;;;;;19.30;11.50;;;11.50;78.10;;;;;;5052627;28;20032;-74
2021/09/23 07:17:06;;;;;;;23.13;13.18;;;11.70;77.80;;;;;;5052861;28;20017;-74
2021/09/23 07:19:32;;;;;;;21.58;11.43;;;11.90;77.20;;;;;;5052606;28;20052;-74
2021/09/23 07:21:58;;;;;;;22.77;10.55;;;12.00;76.30;;;;;;5052727;28;20028;-74
2021/09/23 07:24:25;;;;;;;18.42;10.25;;;12.20;76.10;;;;;;5052573;28;20033;-74
2021/09/23 07:26:51;;;;;;;15.60;8.70;;;12.40;75.60;;;;;;5052679;28;20017;-76
2021/09/23 07:29:17;;;;;;;12.23;8.10;;;12.50;75.20;;;;;;5052449;28;20029;-74
2021/09/23 07:31:44;;;;;;;19.65;8.45;;;12.60;74.90;;;;;;5051901;28;20021;-75
2021/09/23 07:34:10;;;;;;;17.85;8.18;;;12.60;75.20;;;;;;5052377;28;20041;-76
2021/09/23 07:36:36;;;;;;;12.40;6.10;;;12.50;75.60;;;;;;5052274;28;20075;-75
2021/09/23 07:39:06;;;;;;;15.70;6.93;;;12.40;76.20;;;;;;5052544;28;20025;-76
2021/09/23 07:41:33;;;;;;;11.18;6.57;;;12.40;76.30;;;;;;5052395;28;20013;-76
2021/09/23 07:43:58;;;;;;;9.27;6.05;;;12.60;76.00;;;;;;5052443;28;20388;-75
2021/09/23 07:46:24;;;;;;;9.45;5.43;;;12.70;75.50;;;;;;5052510;28;20104;-74
2021/09/23 07:48:53;;;;;;;11.80;5.10;;;13.00;74.80;;;;;;5052465;28;20409;-72
2021/09/23 07:51:22;;;;;;;10.20;4.75;;;13.10;74.60;;;;;;5052225;28;20018;-73
2021/09/23 07:53:47;;;;;;;12.88;5.05;;;13.10;74.40;;;;;;5050826;28;20413;-73
2021/09/23 07:56:14;;;;;;;12.00;4.55;;;13.50;83.50;;;;;;5052486;28;20055;-78
2021/09/23 07:58:39;;;;;;;8.88;4.05;;;13.70;79.80;;;;;;5052775;28;20049;-79
2021/09/23 08:01:05;;;;;;;11.52;4.30;;;14.00;78.70;;;;;;5052114;28;20085;-79
2021/09/23 08:03:31;;;;;;;9.82;4.53;;;14.40;76.10;;;;;;5052267;28;20025;-79
2021/09/23 08:05:57;;;;;;;12.93;4.30;;;14.60;70.80;;;;;;5051063;28;20036;-82
2021/09/23 08:08:22;;;;;;;8.70;4.68;;;14.40;69.80;;;;;;5053557;28;20021;-79
2021/09/23 08:10:48;;;;;;;12.55;4.15;;;14.60;72.10;;;;;;5055907;28;20390;-79
2021/09/23 08:13:13;;;;;;;7.30;3.83;;;14.90;72.70;;;;;;5055896;28;20110;-78
2021/09/23 08:15:41;;;;;;;5.75;3.35;;;15.00;68.70;;;;;;5055952;28;20376;-79
2021/09/23 08:18:07;;;;;;;4.40;3.20;;;15.20;69.50;;;;;;5056043;28;20025;-80
2021/09/23 08:20:33;;;;;;;8.25;4.35;;;15.40;68.60;;;;;;5056992;28;20029;-79
2021/09/23 08:22:58;;;;;;;6.65;3.80;;;15.50;67.70;;;;;;5057529;28;20389;-79
2021/09/23 08:25:24;;;;;;;8.25;4.10;;;15.40;68.90;;;;;;5057463;28;20079;-79
2021/09/23 08:27:50;;;;;;;7.68;4.63;;;15.60;68.10;;;;;;5055770;28;20025;-81
2021/09/23 08:30:16;;;;;;;8.38;4.47;;;15.70;65.40;;;;;;5055587;28;20017;-80
2021/09/23 08:32:42;;;;;;;4.82;3.85;;;15.50;66.50;;;;;;5055893;28;20453;-78
2021/09/23 08:35:08;;;;;;;8.25;4.00;;;15.50;66.80;;;;;;5056209;28;20049;-78
2021/09/23 08:37:35;;;;;;;5.97;3.70;;;15.70;66.40;;;;;;5058241;28;20021;-82
2021/09/23 08:40:02;;;;;;;9.73;4.03;;;15.90;66.70;;;;;;5056326;28;20021;-79
2021/09/23 08:42:28;;;;;;;6.00;4.05;;;16.20;66.30;;;;;;5056886;28;20070;-74
2021/09/23 08:44:57;;;;;;;11.60;4.38;;;16.40;64.60;;;;;;5055711;28;20116;-74
2021/09/23 08:47:23;;;;;;;7.88;3.92;;;16.40;64.70;;;;;;5055421;28;20055;-74
2021/09/23 08:49:49;;;;;;;8.50;4.45;;;16.50;64.60;;;;;;5055298;28;20028;-74
2021/09/23 08:52:15;;;;;;;7.07;4.40;;;16.60;64.90;;;;;;5055046;28;20035;-74
2021/09/23 08:54:40;;;;;;;7.45;3.58;;;16.60;63.40;;;;;;5055109;28;20048;-74
2021/09/23 08:57:06;;;;;;;8.25;4.03;;;16.60;64.10;;;;;;5054934;28;20384;-74
2021/09/23 08:59:32;;;;;;;8.57;4.25;;;16.70;63.50;;;;;;5055063;28;20437;-74
2021/09/23 09:01:59;;;;;;;7.72;4.50;;;16.70;63.30;;;;;;5054740;28;20053;-74
2021/09/23 09:04:34;;;;;;;7.32;4.15;;;16.60;64.50;;;;;;5036913;28;20172;-74
2021/09/23 09:07:02;;;;;;;7.22;3.80;;;16.70;62.00;;;;;;5054883;28;20025;-74
2021/09/23 09:09:28;;;;;;;5.00;3.88;;;16.60;62.50;;;;;;5054648;28;20033;-74
2021/09/23 09:11:56;;;;;;;6.97;4.13;;;16.50;63.00;;;;;;5054659;28;20074;-74
2021/09/23 09:14:30;;;;;;;6.38;4.20;;;16.50;64.10;;;;;;5054802;28;20067;-74
2021/09/23 09:17:02;;;;;;;9.05;4.03;;;16.70;64.90;;;;;;5054388;28;20108;-74
2021/09/23 09:19:56;;;;;;;6.15;4.65;;;16.80;63.10;;;;;;5053621;28;20100;-74
2021/09/23 09:22:24;;;;;;;8.55;4.32;;;17.10;62.70;;;;;;5054431;28;20027;-74
2021/09/23 09:24:59;;;;;;;8.00;4.38;;;17.10;63.20;;;;;;5054534;28;20032;-73
2021/09/23 09:27:34;;;;;;;8.30;3.63;;;16.90;62.90;;;;;;5054671;28;20106;-74
2021/09/23 09:30:03;;;;;;;;;;;17.10;62.90;;;;;;5054771;28;20029;-74
2021/09/23 09:32:36;;;;;;;4.28;3.55;;;17.00;61.70;;;;;;5054639;28;19911;-73
2021/09/23 09:35:03;;;;;;;7.45;3.20;;;17.30;62.00;;;;;;5054251;28;20025;-73
2021/09/23 09:37:32;;;;;;;5.50;3.70;;;17.50;61.60;;;;;;5054111;28;20100;-73
2021/09/23 09:39:58;;;;;;;6.63;4.18;;;17.90;60.80;;;;;;5054200;28;20021;-74
2021/09/23 09:42:27;;;;;;;8.43;4.35;;;18.20;58.90;;;;;;5054080;28;20025;-73
2021/09/23 09:44:57;;;;;;;4.53;3.50;;;18.00;58.80;;;;;;5054121;28;20446;-74
2021/09/23 09:47:33;;;;;;;5.38;4.03;;;18.20;59.30;;;;;;5053981;28;20057;-74
2021/09/23 09:50:12;;;;;;;6.50;3.60;;;18.50;59.90;;;;;;5054068;28;20109;-75
2021/09/23 09:52:39;;;;;;;9.07;4.18;;;18.60;58.00;;;;;;5054183;28;20071;-76
2021/09/23 09:55:10;;;;;;;6.53;3.58;;;18.70;57.60;;;;;;5053911;28;20025;-73
2021/09/23 09:57:46;;;;;;;8.68;3.40;;;18.90;58.10;;;;;;5053567;28;20048;-73
2021/09/23 10:00:13;;;;;;;4.93;3.13;;;19.10;58.30;;;;;;5053474;28;20424;-74
2021/09/23 10:02:39;;;;;;;8.05;3.65;;;19.40;57.30;;;;;;5053707;28;20033;-74
2021/09/23 10:05:06;;;;;;;4.88;3.05;;;19.30;55.70;;;;;;5053702;28;20067;-73
2021/09/23 10:07:36;;;;;;;5.53;3.40;;;19.60;56.20;;;;;;5053381;28;20021;-74
2021/09/23 10:10:02;;;;;;;5.30;3.10;;;19.80;55.80;;;;;;5052159;28;20504;-74
2021/09/23 10:12:30;;;;;;;5.13;3.75;;;20.10;55.00;;;;;;5053149;28;20453;-74
2021/09/23 10:14:55;;;;;;;5.40;3.30;;;20.30;55.40;;;;;;5053563;28;20032;-74
2021/09/23 10:17:22;;;;;;;4.95;2.90;;;20.60;54.70;;;;;;5053192;28;20025;-74
2021/09/23 10:19:48;;;;;;;7.50;3.22;;;20.70;52.60;;;;;;5054143;28;20025;-74
2021/09/23 10:22:15;;;;;;;5.53;3.38;;;20.90;52.40;;;;;;5053066;28;20048;-74
2021/09/23 10:24:43;;;;;;;5.88;3.58;;;21.10;51.50;;;;;;5053094;28;20477;-74
2021/09/23 10:29:55;;;;;;;4.60;2.78;;;20.90;51.30;;;;;;5053662;28;20074;-74
2021/09/23 10:32:22;;;;;;;4.82;3.20;;;21.00;51.80;;;;;;5053255;28;20029;-74
2021/09/23 10:34:51;;;;;;;5.30;3.88;;;21.10;50.90;;;;;;5053128;28;20021;-75
2021/09/23 10:37:18;;;;;;;10.15;3.50;;;21.20;50.50;;;;;;5052946;28;20037;-75
2021/09/23 10:39:44;;;;;;;4.72;2.72;;;21.40;50.00;;;;;;5053010;28;20108;-75
2021/09/23 10:42:19;;;;;;;3.92;3.15;;;21.60;50.50;;;;;;5052985;28;20116;-76
2021/09/23 10:44:47;;;;;;;6.35;2.92;;;21.80;49.90;;;;;;5052773;28;20033;-76
2021/09/23 10:47:12;;;;;;;6.82;3.05;;;22.10;48.20;;;;;;5052104;28;20377;-76
2021/09/23 10:49:38;;;;;;;4.32;2.72;;;22.00;47.60;;;;;;5052214;28;20128;-76
2021/09/23 10:52:04;;;;;;;4.03;2.75;;;22.00;49.60;;;;;;5051895;28;20562;-76
2021/09/23 10:54:30;;;;;;;4.50;2.80;;;22.20;47.60;;;;;;5052251;28;20029;-76
2021/09/23 10:56:56;;;;;;;4.20;2.63;;;22.60;47.60;;;;;;5052300;28;20021;-76
2021/09/23 10:59:25;;;;;;;10.23;2.60;;;22.90;47.40;;;;;;5052017;28;20036;-76
2021/09/23 11:01:51;;;;;;;4.63;2.83;;;22.80;45.20;;;;;;5050882;28;20072;-74
2021/09/23 11:04:19;;;;;;;3.15;2.35;;;22.80;44.70;;;;;;5052559;28;20033;-73
2021/09/23 11:06:45;;;;;;;8.70;4.50;;;22.70;44.70;;;;;;5050954;28;20382;-76
2021/09/23 11:09:26;;;;;;;6.15;2.95;;;23.10;44.30;;;;;;5052176;28;20054;-76
2021/09/23 11:11:54;;;;;;;5.13;2.53;;;22.80;42.30;;;;;;5052155;28;20017;-75
2021/09/23 11:14:21;;;;;;;4.78;2.30;;;22.90;42.40;;;;;;5052156;28;20021;-75
2021/09/23 11:16:50;;;;;;;6.55;2.30;;;22.90;43.20;;;;;;5051517;28;20072;-76
2021/09/23 11:19:24;;;;;;;4.80;2.25;;;23.20;40.10;;;;;;5052004;28;20032;-76
2021/09/23 11:21:55;;;;;;;2.42;1.77;;;23.20;37.40;;;;;;5052116;28;20033;-76
2021/09/23 11:24:22;;;;;;;3.50;1.90;;;22.90;34.10;;;;;;5052046;28;20033;-75
2021/09/23 11:26:50;;;;;;;2.38;2.00;;;22.90;33.80;;;;;;5051777;28;20037;-76
2021/09/23 11:29:17;;;;;;;2.13;1.92;;;22.40;34.30;;;;;;5050499;28;20029;-75
2021/09/23 11:31:54;;;;;;;4.03;2.17;;;22.30;36.50;;;;;;5052057;28;20029;-75
2021/09/23 11:34:33;;;;;;;5.00;2.47;;;22.50;38.50;;;;;;5051993;28;20032;-76
2021/09/23 11:36:59;;;;;;;5.47;2.22;;;23.00;39.10;;;;;;5052305;28;20028;-76
2021/09/23 11:39:25;;;;;;;2.53;2.13;;;23.10;38.60;;;;;;5052390;28;20025;-76
2021/09/23 11:42:09;;;;;;;3.42;2.20;;;23.20;39.20;;;;;;5052625;28;20021;-76
2021/09/23 11:44:37;;;;;;;2.43;2.10;;;23.40;39.30;;;;;;5055636;28;20033;-76
2021/09/23 11:47:02;;;;;;;5.22;2.53;;;23.50;38.30;;;;;;5056161;28;20021;-77
2021/09/23 11:49:28;;;;;;;5.45;2.40;;;23.80;38.10;;;;;;5055968;28;20056;-78
2021/09/23 11:51:58;;;;;;;3.92;2.33;;;23.50;39.00;;;;;;5056435;28;20075;-78
2021/09/23 11:54:24;;;;;;;3.75;2.25;;;23.60;38.20;;;;;;5056166;28;20025;-74
2021/09/23 11:56:50;;;;;;;4.70;2.58;;;23.80;37.60;;;;;;5056348;28;20055;-75
2021/09/23 11:59:22;;;;;;;3.58;2.38;;;24.00;36.40;;;;;;5056155;28;20031;-74
2021/09/23 12:01:58;;;;;;;3.30;2.40;;;24.20;35.40;;;;;;5055788;28;20371;-74
2021/09/23 12:04:24;;;;;;;5.30;2.40;;;24.50;35.20;;;;;;5054934;28;20048;-74
2021/09/23 12:07:04;;;;;;;2.72;2.53;;;23.90;34.80;;;;;;5055900;28;20029;-74
2021/09/23 12:09:30;;;;;;;21.48;16.10;;;23.50;35.90;;;;;;5056056;28;20108;-75
2021/09/23 12:11:55;;;;;;;4.38;3.10;;;24.00;35.60;;;;;;5056143;28;20059;-76
2021/09/23 12:14:21;;;;;;;2.97;2.65;;;24.30;34.20;;;;;;5056043;28;20096;-75
2021/09/23 12:16:50;;;;;;;3.97;2.70;;;24.30;35.80;;;;;;5055662;28;20021;-76
2021/09/23 12:19:16;;;;;;;4.97;2.85;;;24.50;35.40;;;;;;5055593;28;20090;-77
2021/09/23 12:21:51;;;;;;;3.50;2.28;;;24.40;36.20;;;;;;5055815;28;20025;-76
2021/09/23 12:24:17;;;;;;;8.38;3.63;;;24.70;36.20;;;;;;5055642;28;20029;-76
2021/09/23 12:26:44;;;;;;;4.15;2.65;;;24.60;36.40;;;;;;5055580;28;20040;-76
2021/09/23 12:29:24;;;;;;;4.25;2.80;;;24.30;36.40;;;;;;5055701;28;20025;-76
2021/09/23 12:32:04;;;;;;;5.38;3.22;;;24.40;36.70;;;;;;5055616;28;20025;-75
2021/09/23 12:34:30;;;;;;;4.93;2.38;;;24.80;36.40;;;;;;5055431;28;20048;-77
2021/09/23 12:37:05;;;;;;;4.18;2.67;;;25.30;36.20;;;;;;5055491;28;20378;-77
2021/09/23 12:39:43;;;;;;;2.60;2.33;;;25.90;34.80;;;;;;5055426;28;20028;-76
2021/09/23 12:42:33;;;;;;;4.07;2.00;;;25.90;33.70;;;;;;5055256;28;20017;-76
2021/09/23 12:45:01;;;;;;;4.03;2.08;;;25.90;35.20;;;;;;5055223;28;20036;-76
2021/09/23 12:47:30;;;;;;;3.38;1.73;;;26.10;34.10;;;;;;5055198;28;20097;-76